createdAt,value
2022-07-26T00:00:44.926Z,0.00
2022-07-26T00:01:45.310Z,0.00
2022-07-26T00:02:48.191Z,0.00
2022-07-26T00:03:45.758Z,0.00
2022-07-26T00:04:46.009Z,0.00
2022-07-26T00:05:46.213Z,0.00
2022-07-26T00:06:46.561Z,0.00
2022-07-26T00:07:46.916Z,0.00
2022-07-26T00:08:47.132Z,0.00
2022-07-26T00:09:48.576Z,0.00
2022-07-26T00:10:47.792Z,0.00
2022-07-26T00:11:48.140Z,0.00
2022-07-26T00:12:48.493Z,0.00
2022-07-26T00:13:48.702Z,0.00
2022-07-26T00:14:49.086Z,0.00
2022-07-26T00:15:49.323Z,0.00
2022-07-26T00:16:49.670Z,0.00
2022-07-26T00:17:49.874Z,0.00
2022-07-26T00:18:50.226Z,0.00
2022-07-26T00:19:50.455Z,0.00
2022-07-26T00:20:50.801Z,0.00
2022-07-26T00:21:51.088Z,0.00
2022-07-26T00:22:51.426Z,0.00
2022-07-26T00:23:51.797Z,0.00
2022-07-26T00:24:52.030Z,0.00
2022-07-26T00:25:52.238Z,0.00
2022-07-26T00:26:52.571Z,0.00
2022-07-26T00:27:52.927Z,0.00
2022-07-26T00:28:53.192Z,0.00
2022-07-26T00:29:53.450Z,0.00
2022-07-26T00:30:53.689Z,0.00
2022-07-26T00:31:54.021Z,0.00
2022-07-26T00:32:54.249Z,0.00
2022-07-26T00:33:54.521Z,0.00
2022-07-26T00:34:54.765Z,0.00
2022-07-26T00:35:54.992Z,0.00
2022-07-26T00:36:55.233Z,0.00
2022-07-26T00:37:55.474Z,0.00
2022-07-26T00:38:55.714Z,0.00
2022-07-26T00:39:55.925Z,0.00
2022-07-26T00:40:56.274Z,0.00
2022-07-26T00:41:56.636Z,0.00
2022-07-26T00:42:56.866Z,0.00
2022-07-26T00:43:57.098Z,0.00
2022-07-26T00:44:57.366Z,0.00
2022-07-26T00:45:57.631Z,0.00
2022-07-26T00:46:57.843Z,0.00
2022-07-26T00:47:58.180Z,0.00
2022-07-26T00:48:58.602Z,0.00
2022-07-26T00:49:58.833Z,0.00
2022-07-26T00:50:59.179Z,0.00
2022-07-26T00:51:59.517Z,0.00
2022-07-26T00:52:59.861Z,0.00
2022-07-26T00:54:00.202Z,0.00
2022-07-26T00:55:00.532Z,0.00
2022-07-26T00:56:00.873Z,0.00
2022-07-26T00:57:01.213Z,0.00
2022-07-26T00:58:01.643Z,0.00
2022-07-26T00:59:01.892Z,0.00
2022-07-26T01:00:02.234Z,0.00
2022-07-26T01:01:02.581Z,0.00
2022-07-26T01:02:02.886Z,0.00
2022-07-26T01:03:02.964Z,0.00
2022-07-26T01:04:03.312Z,0.00
2022-07-26T01:05:03.665Z,0.00
2022-07-26T01:06:03.896Z,0.00
2022-07-26T01:07:14.720Z,0.00
2022-07-26T01:08:05.475Z,0.00
2022-07-26T01:09:04.775Z,0.00
2022-07-26T01:10:04.996Z,0.00
2022-07-26T01:11:05.348Z,0.00
2022-07-26T01:12:05.675Z,0.00
2022-07-26T01:13:06.006Z,0.00
2022-07-26T01:14:06.621Z,0.00
2022-07-26T01:15:06.689Z,0.00
2022-07-26T01:16:07.129Z,0.00
2022-07-26T01:17:07.392Z,0.00
2022-07-26T01:18:07.603Z,0.00
2022-07-26T01:19:07.988Z,0.00
2022-07-26T01:20:08.256Z,0.00
2022-07-26T01:21:13.597Z,0.00
2022-07-26T01:22:14.148Z,0.00
2022-07-26T01:23:09.202Z,0.00
2022-07-26T01:24:09.846Z,0.00
2022-07-26T01:25:09.814Z,0.00
2022-07-26T01:26:10.041Z,0.00
2022-07-26T01:27:10.425Z,0.00
2022-07-26T01:28:10.645Z,0.00
2022-07-26T01:29:11.017Z,0.00
2022-07-26T01:30:11.270Z,0.00
2022-07-26T01:31:11.553Z,0.00
2022-07-26T01:32:11.815Z,0.00
2022-07-26T01:33:12.066Z,0.00
2022-07-26T01:34:12.465Z,0.00
2022-07-26T01:35:12.627Z,0.00
2022-07-26T01:36:12.972Z,0.00
2022-07-26T01:37:13.182Z,0.00
2022-07-26T01:38:13.530Z,0.00
2022-07-26T01:39:13.765Z,0.00
2022-07-26T01:40:14.052Z,0.00
2022-07-26T01:41:14.279Z,0.00
2022-07-26T01:42:14.489Z,0.00
2022-07-26T01:43:14.866Z,0.00
2022-07-26T01:44:15.094Z,0.00
2022-07-26T01:45:15.323Z,0.00
2022-07-26T01:46:15.756Z,0.00
2022-07-26T01:47:16.011Z,0.00
2022-07-26T01:48:16.332Z,0.00
2022-07-26T01:49:16.750Z,0.00
2022-07-26T01:50:17.071Z,0.00
2022-07-26T01:51:17.293Z,0.00
2022-07-26T01:52:17.734Z,0.00
2022-07-26T01:53:17.975Z,0.00
2022-07-26T01:54:22.328Z,0.00
2022-07-26T01:55:19.456Z,0.00
2022-07-26T01:56:18.728Z,0.00
2022-07-26T01:57:19.077Z,0.00
2022-07-26T01:58:19.287Z,0.00
2022-07-26T01:59:19.638Z,0.00
2022-07-26T02:00:19.870Z,0.00
2022-07-26T02:01:20.107Z,0.00
2022-07-26T02:02:21.528Z,0.00
2022-07-26T02:03:20.805Z,0.00
2022-07-26T02:04:21.059Z,0.00
2022-07-26T02:05:21.267Z,0.00
2022-07-26T02:06:21.597Z,0.00
2022-07-26T02:07:21.820Z,0.00
2022-07-26T02:08:22.345Z,0.00
2022-07-26T02:09:22.414Z,0.00
2022-07-26T02:10:22.633Z,0.00
2022-07-26T02:11:22.841Z,0.00
2022-07-26T02:12:23.214Z,0.00
2022-07-26T02:13:23.430Z,0.00
2022-07-26T02:14:26.017Z,0.00
2022-07-26T02:15:24.005Z,0.00
2022-07-26T02:16:24.406Z,0.00
2022-07-26T02:17:24.656Z,0.00
2022-07-26T02:18:25.044Z,0.00
2022-07-26T02:19:25.285Z,0.00
2022-07-26T02:20:25.534Z,0.00
2022-07-26T02:21:25.797Z,0.00
2022-07-26T02:22:26.028Z,0.00
2022-07-26T02:23:26.385Z,0.00
2022-07-26T02:24:26.654Z,0.00
2022-07-26T02:25:26.859Z,0.00
2022-07-26T02:26:27.215Z,0.00
2022-07-26T02:27:27.418Z,0.00
2022-07-26T02:28:27.779Z,0.00
2022-07-26T02:29:28.012Z,0.00
2022-07-26T02:30:28.237Z,0.00
2022-07-26T02:31:32.318Z,0.00
2022-07-26T02:32:28.840Z,0.00
2022-07-26T02:33:29.192Z,0.00
2022-07-26T02:35:45.146Z,0.00
2022-07-26T02:36:45.297Z,0.00
2022-07-26T02:37:45.670Z,0.00
2022-07-26T02:38:45.860Z,0.00
2022-07-26T02:39:46.129Z,4.00
2022-07-26T02:40:46.361Z,4.00
2022-07-26T02:41:46.716Z,0.00
2022-07-26T02:42:46.931Z,4.00
2022-07-26T02:43:47.174Z,4.00
2022-07-26T02:44:47.432Z,4.00
2022-07-26T02:46:00.817Z,4.00
2022-07-26T02:46:48.983Z,4.00
2022-07-26T02:47:48.246Z,8.00
2022-07-26T02:48:48.713Z,8.00
2022-07-26T02:49:48.914Z,8.00
2022-07-26T02:50:49.174Z,12.00
2022-07-26T02:51:49.427Z,12.00
2022-07-26T02:52:49.767Z,12.00
2022-07-26T02:53:50.010Z,16.00
2022-07-26T02:54:50.355Z,16.00
2022-07-26T02:55:50.582Z,20.00
2022-07-26T02:56:50.876Z,24.00
2022-07-26T02:57:51.126Z,28.00
2022-07-26T02:58:51.427Z,32.00
2022-07-26T02:59:51.718Z,36.00
2022-07-26T03:00:52.058Z,40.00
2022-07-26T03:01:52.345Z,44.00
2022-07-26T03:02:52.714Z,48.00
2022-07-26T03:03:52.970Z,52.00
2022-07-26T03:04:53.299Z,56.00
2022-07-26T03:05:53.758Z,64.00
2022-07-26T03:06:53.989Z,68.00
2022-07-26T03:07:54.291Z,72.00
2022-07-26T03:08:54.457Z,76.00
2022-07-26T03:09:54.811Z,84.00
2022-07-26T03:10:55.084Z,88.00
2022-07-26T03:11:55.371Z,92.00
2022-07-26T03:12:55.662Z,104.00
2022-07-26T03:13:55.947Z,112.00
2022-07-26T03:14:56.216Z,116.00
2022-07-26T03:15:56.589Z,124.00
2022-07-26T03:16:56.803Z,132.00
2022-07-26T03:17:56.939Z,140.00
2022-07-26T03:18:57.235Z,148.00
2022-07-26T03:19:57.554Z,160.00
2022-07-26T03:20:57.815Z,172.00
2022-07-26T03:21:58.106Z,196.00
2022-07-26T03:22:58.365Z,228.00
2022-07-26T03:23:58.629Z,252.00
2022-07-26T03:24:58.922Z,276.00
2022-07-26T03:25:59.235Z,292.00
2022-07-26T03:26:59.497Z,308.00
2022-07-26T03:27:59.809Z,328.00
2022-07-26T03:29:00.178Z,344.00
2022-07-26T03:30:00.488Z,356.00
2022-07-26T03:31:00.923Z,368.00
2022-07-26T03:32:01.349Z,384.00
2022-07-26T03:33:01.556Z,408.00
2022-07-26T03:34:03.444Z,440.00
2022-07-26T03:35:01.952Z,460.00
2022-07-26T03:36:02.224Z,484.00
2022-07-26T03:37:02.482Z,524.00
2022-07-26T03:38:02.734Z,564.00
2022-07-26T03:39:03.012Z,592.00
2022-07-26T03:40:03.346Z,612.00
2022-07-26T03:41:03.604Z,624.00
2022-07-26T03:42:03.944Z,656.00
2022-07-26T03:43:04.186Z,700.00
2022-07-26T03:44:04.776Z,748.00
2022-07-26T03:45:04.776Z,792.00
2022-07-26T03:46:05.046Z,836.00
2022-07-26T03:47:05.309Z,860.00
2022-07-26T03:48:05.577Z,884.00
2022-07-26T03:49:05.964Z,936.00
2022-07-26T03:50:06.190Z,980.00
2022-07-26T03:51:06.528Z,1004.00
2022-07-26T03:52:06.891Z,1016.00
2022-07-26T03:53:07.077Z,1024.00
2022-07-26T03:54:07.710Z,1056.00
2022-07-26T03:55:07.679Z,1124.00
2022-07-26T03:56:07.920Z,1212.00
2022-07-26T03:57:08.080Z,1264.00
2022-07-26T03:58:08.359Z,1284.00
2022-07-26T03:59:08.801Z,1284.00
2022-07-26T04:00:09.012Z,1272.00
2022-07-26T04:01:09.301Z,1260.00
2022-07-26T04:02:09.701Z,1272.00
2022-07-26T04:03:09.936Z,1272.00
2022-07-26T04:04:10.804Z,1300.00
2022-07-26T04:05:10.633Z,1360.00
2022-07-26T04:06:10.935Z,1424.00
2022-07-26T04:07:11.146Z,1420.00
2022-07-26T04:08:11.424Z,1416.00
2022-07-26T04:09:11.728Z,1508.00
2022-07-26T04:10:12.036Z,1532.00
2022-07-26T04:11:12.328Z,1528.00
2022-07-26T04:12:12.620Z,1556.00
2022-07-26T04:13:12.937Z,1584.00
2022-07-26T04:14:13.251Z,1664.00
2022-07-26T04:15:13.551Z,1720.00
2022-07-26T04:16:13.865Z,1876.00
2022-07-26T04:17:14.247Z,2032.00
2022-07-26T04:18:14.506Z,1800.00
2022-07-26T04:19:14.832Z,1788.00
2022-07-26T04:20:15.149Z,1872.00
2022-07-26T04:21:15.460Z,2076.00
2022-07-26T04:22:15.750Z,2084.00
2022-07-26T04:23:16.011Z,2168.00
2022-07-26T04:24:16.315Z,2224.00
2022-07-26T04:25:16.641Z,2228.00
2022-07-26T04:26:16.927Z,2256.00
2022-07-26T04:27:17.187Z,2292.00
2022-07-26T04:28:17.472Z,2608.00
2022-07-26T04:29:17.772Z,2796.00
2022-07-26T04:30:18.079Z,2784.00
2022-07-26T04:31:18.450Z,2540.00
2022-07-26T04:32:18.628Z,2364.00
2022-07-26T04:33:18.899Z,2280.00
2022-07-26T04:34:19.195Z,2292.00
2022-07-26T04:35:19.523Z,2320.00
2022-07-26T04:36:19.809Z,2328.00
2022-07-26T04:37:20.126Z,2428.00
2022-07-26T04:38:20.407Z,2552.00
2022-07-26T04:39:20.699Z,2640.00
2022-07-26T04:40:21.373Z,2732.00
2022-07-26T04:41:21.326Z,2780.00
2022-07-26T04:42:21.578Z,2828.00
2022-07-26T04:43:21.929Z,2740.00
2022-07-26T04:44:22.211Z,2436.00
2022-07-26T04:45:22.520Z,2524.00
2022-07-26T04:46:22.894Z,2860.00
2022-07-26T04:47:23.052Z,2948.00
2022-07-26T04:48:23.312Z,3096.00
2022-07-26T04:49:23.585Z,2928.00
2022-07-26T04:50:23.881Z,2988.00
2022-07-26T04:51:24.163Z,2876.00
2022-07-26T04:52:24.418Z,3188.00
2022-07-26T04:53:24.834Z,3188.00
2022-07-26T04:54:25.002Z,3328.00
2022-07-26T04:55:25.308Z,4140.00
2022-07-26T04:56:25.566Z,3768.00
2022-07-26T04:57:25.815Z,3328.00
2022-07-26T04:58:26.121Z,3136.00
2022-07-26T04:59:26.462Z,3704.00
2022-07-26T05:00:26.785Z,3816.00
2022-07-26T05:01:27.116Z,3644.00
2022-07-26T05:02:27.585Z,4220.00
2022-07-26T05:03:27.680Z,4316.00
2022-07-26T05:04:27.981Z,5016.00
2022-07-26T05:05:28.303Z,5404.00
2022-07-26T05:06:28.587Z,9432.00
2022-07-26T05:07:28.859Z,16992.00
2022-07-26T05:08:29.122Z,18176.00
2022-07-26T05:09:29.396Z,17536.00
2022-07-26T05:10:29.739Z,17888.00
2022-07-26T05:11:30.017Z,13532.00
2022-07-26T05:12:30.290Z,15584.00
2022-07-26T05:13:31.133Z,17664.00
2022-07-26T05:14:30.886Z,17152.00
2022-07-26T05:15:35.297Z,16640.00
2022-07-26T05:16:31.443Z,18912.00
2022-07-26T05:17:31.616Z,19392.00
2022-07-26T05:18:46.122Z,17216.00
2022-07-26T05:19:33.164Z,10696.00
2022-07-26T05:20:32.430Z,18016.00
2022-07-26T05:21:32.717Z,19392.00
2022-07-26T05:22:33.005Z,16416.00
2022-07-26T05:23:33.268Z,17504.00
2022-07-26T05:24:33.560Z,16064.00
2022-07-26T05:25:33.842Z,20096.00
2022-07-26T05:26:34.108Z,23872.00
2022-07-26T05:27:34.388Z,24992.00
2022-07-26T05:28:34.668Z,23648.00
2022-07-26T05:29:34.942Z,14656.00
2022-07-26T05:30:35.312Z,18560.00
2022-07-26T05:31:35.462Z,20448.00
2022-07-26T05:32:35.752Z,22784.00
2022-07-26T05:33:36.014Z,20768.00
2022-07-26T05:34:36.282Z,21056.00
2022-07-26T05:35:36.593Z,22016.00
2022-07-26T05:36:36.865Z,21248.00
2022-07-26T05:37:37.155Z,24480.00
2022-07-26T05:38:37.425Z,28864.00
2022-07-26T05:39:37.687Z,23744.00
2022-07-26T05:40:37.975Z,18720.00
2022-07-26T05:41:38.236Z,17472.00
2022-07-26T05:42:38.517Z,14392.00
2022-07-26T05:43:40.910Z,19232.00
2022-07-26T05:44:42.475Z,23200.00
2022-07-26T05:45:39.422Z,17888.00
2022-07-26T05:46:39.605Z,23392.00
2022-07-26T05:47:40.029Z,26496.00
2022-07-26T05:48:40.319Z,27552.00
2022-07-26T05:49:40.908Z,29312.00
2022-07-26T05:50:40.825Z,27488.00
2022-07-26T05:51:40.962Z,22080.00
2022-07-26T05:52:41.232Z,15712.00
2022-07-26T05:53:41.501Z,20480.00
2022-07-26T05:54:41.813Z,19360.00
2022-07-26T05:55:42.113Z,18016.00
2022-07-26T05:56:42.383Z,15744.00
2022-07-26T05:57:42.653Z,14976.00
2022-07-26T05:58:42.929Z,11232.00
2022-07-26T05:59:43.205Z,15456.00
2022-07-26T06:00:48.259Z,11196.00
2022-07-26T06:01:44.767Z,11836.00
2022-07-26T06:02:44.132Z,9572.00
2022-07-26T06:03:44.517Z,10564.00
2022-07-26T06:04:44.721Z,4628.00
2022-07-26T06:05:44.959Z,10000.00
2022-07-26T06:06:45.228Z,14176.00
2022-07-26T06:07:45.506Z,8444.00
2022-07-26T06:08:45.779Z,9024.00
2022-07-26T06:09:46.040Z,6604.00
2022-07-26T06:10:46.378Z,28768.00
2022-07-26T06:11:46.622Z,11252.00
2022-07-26T06:12:46.897Z,24704.00
2022-07-26T06:13:47.192Z,20960.00
2022-07-26T06:14:47.491Z,11460.00
2022-07-26T06:15:47.845Z,5400.00
2022-07-26T06:16:48.101Z,6304.00
2022-07-26T06:17:48.254Z,14176.00
2022-07-26T06:18:48.533Z,17856.00
2022-07-26T06:19:48.836Z,6464.00
2022-07-26T06:20:49.115Z,11832.00
2022-07-26T06:21:49.373Z,13952.00
2022-07-26T06:22:49.641Z,18912.00
2022-07-26T06:23:49.919Z,25376.00
2022-07-26T06:24:50.203Z,28576.00
2022-07-26T06:25:50.529Z,28640.00
2022-07-26T06:26:56.336Z,28384.00
2022-07-26T06:27:52.170Z,28128.00
2022-07-26T06:28:51.369Z,7696.00
2022-07-26T06:29:51.655Z,5936.00
2022-07-26T06:30:51.972Z,6804.00
2022-07-26T06:31:52.291Z,5004.00
2022-07-26T06:32:52.563Z,5520.00
2022-07-26T06:33:52.866Z,6224.00
2022-07-26T06:34:53.155Z,28192.00
2022-07-26T06:35:53.456Z,5524.00
2022-07-26T06:36:53.733Z,26016.00
2022-07-26T06:37:54.018Z,7020.00
2022-07-26T06:38:54.272Z,6352.00
2022-07-26T06:39:54.549Z,10364.00
2022-07-26T06:40:54.842Z,6740.00
2022-07-26T06:41:55.290Z,5424.00
2022-07-26T06:42:55.410Z,6040.00
2022-07-26T06:43:55.779Z,4388.00
2022-07-26T06:44:55.944Z,3396.00
2022-07-26T06:45:56.368Z,2948.00
2022-07-26T06:46:56.524Z,2984.00
2022-07-26T06:47:56.812Z,3736.00
2022-07-26T06:48:57.316Z,4116.00
2022-07-26T06:49:57.315Z,5244.00
2022-07-26T06:50:57.624Z,7216.00
2022-07-26T06:51:57.983Z,6976.00
2022-07-26T06:52:58.255Z,5372.00
2022-07-26T06:53:58.565Z,5492.00
2022-07-26T06:54:58.856Z,5880.00
2022-07-26T06:55:59.207Z,9824.00
2022-07-26T06:56:59.477Z,4900.00
2022-07-26T06:57:59.798Z,4512.00
2022-07-26T06:59:00.167Z,5784.00
2022-07-26T07:00:00.391Z,5220.00
2022-07-26T07:01:00.650Z,4228.00
2022-07-26T07:02:00.885Z,5188.00
2022-07-26T07:03:01.105Z,6024.00
2022-07-26T07:04:01.381Z,4720.00
2022-07-26T07:05:01.749Z,3292.00
2022-07-26T07:06:01.952Z,3612.00
2022-07-26T07:07:02.291Z,3872.00
2022-07-26T07:08:02.523Z,5040.00
2022-07-26T07:09:03.024Z,4744.00
2022-07-26T07:10:03.243Z,4364.00
2022-07-26T07:11:03.471Z,3984.00
2022-07-26T07:12:10.398Z,4516.00
2022-07-26T07:13:05.065Z,4676.00
2022-07-26T07:14:04.348Z,5732.00
2022-07-26T07:15:04.656Z,6812.00
2022-07-26T07:16:05.021Z,5900.00
2022-07-26T07:17:13.005Z,5748.00
2022-07-26T07:18:06.517Z,4064.00
2022-07-26T07:19:05.776Z,4320.00
2022-07-26T07:20:06.069Z,4348.00
2022-07-26T07:21:06.378Z,3648.00
2022-07-26T07:22:06.720Z,4588.00
2022-07-26T07:23:06.891Z,5884.00
2022-07-26T07:24:07.509Z,5404.00
2022-07-26T07:25:07.521Z,5836.00
2022-07-26T07:26:07.872Z,5500.00
2022-07-26T07:27:08.170Z,4780.00
2022-07-26T07:28:08.460Z,4884.00
2022-07-26T07:29:08.730Z,4332.00
2022-07-26T07:30:09.031Z,4208.00
2022-07-26T07:31:09.460Z,4232.00
2022-07-26T07:32:18.175Z,4292.00
2022-07-26T07:33:22.488Z,5256.00
2022-07-26T07:34:11.655Z,6424.00
2022-07-26T07:35:12.869Z,5424.00
2022-07-26T07:36:10.848Z,4596.00
2022-07-26T07:37:11.116Z,5892.00
2022-07-26T07:38:11.426Z,5268.00
2022-07-26T07:39:17.116Z,3832.00
2022-07-26T07:40:13.015Z,4120.00
2022-07-26T07:41:12.371Z,4960.00
2022-07-26T07:42:12.648Z,4276.00
2022-07-26T07:43:12.929Z,4940.00
2022-07-26T07:44:13.212Z,4520.00
2022-07-26T07:45:13.506Z,4684.00
2022-07-26T07:46:13.890Z,4864.00
2022-07-26T07:47:14.139Z,3348.00
2022-07-26T07:48:14.291Z,2764.00
2022-07-26T07:49:14.635Z,3348.00
2022-07-26T07:50:14.823Z,5016.00
2022-07-26T07:51:15.123Z,3960.00
2022-07-26T07:52:15.423Z,3296.00
2022-07-26T07:53:15.703Z,3148.00
2022-07-26T07:54:16.014Z,3936.00
2022-07-26T07:55:28.702Z,3500.00
2022-07-26T07:56:17.615Z,4020.00
2022-07-26T07:57:16.819Z,3972.00
2022-07-26T07:58:18.838Z,3708.00
2022-07-26T07:59:17.432Z,3876.00
2022-07-26T08:00:17.783Z,5212.00
2022-07-26T08:01:17.999Z,5408.00
2022-07-26T08:02:18.187Z,6864.00
2022-07-26T08:03:18.795Z,6216.00
2022-07-26T08:04:18.935Z,5212.00
2022-07-26T08:05:19.342Z,6492.00
2022-07-26T08:06:19.658Z,6672.00
2022-07-26T08:07:19.723Z,5456.00
2022-07-26T08:08:22.516Z,4764.00
2022-07-26T08:09:20.333Z,4404.00
2022-07-26T08:10:20.651Z,5300.00
2022-07-26T08:11:20.911Z,6476.00
2022-07-26T08:12:21.143Z,5972.00
2022-07-26T08:13:21.832Z,5660.00
2022-07-26T08:14:21.622Z,5980.00
2022-07-26T08:15:21.917Z,4780.00
2022-07-26T08:16:22.277Z,4936.00
2022-07-26T08:17:22.527Z,4996.00
2022-07-26T08:18:22.908Z,6012.00
2022-07-26T08:19:23.084Z,7252.00
2022-07-26T08:20:24.905Z,7300.00
2022-07-26T08:21:23.774Z,6544.00
2022-07-26T08:22:24.096Z,7104.00
2022-07-26T08:23:24.388Z,7892.00
2022-07-26T08:24:24.564Z,7824.00
2022-07-26T08:25:24.909Z,6140.00
2022-07-26T08:26:25.292Z,6524.00
2022-07-26T08:27:25.594Z,7556.00
2022-07-26T08:28:46.394Z,7228.00
2022-07-26T08:29:27.320Z,7236.00
2022-07-26T08:30:26.482Z,7680.00
2022-07-26T08:31:26.854Z,7144.00
2022-07-26T08:32:27.005Z,5912.00
2022-07-26T08:33:27.261Z,6068.00
2022-07-26T08:35:27.793Z,5724.00
2022-07-26T08:36:32.208Z,5868.00
2022-07-26T08:37:28.306Z,6636.00
2022-07-26T08:38:28.602Z,5936.00
2022-07-26T08:39:28.838Z,6568.00
2022-07-26T08:40:29.087Z,6188.00
2022-07-26T08:41:29.337Z,6088.00
2022-07-26T08:42:29.596Z,6228.00
2022-07-26T08:43:29.976Z,7600.00
2022-07-26T08:44:30.068Z,7672.00
2022-07-26T08:45:30.321Z,6500.00
2022-07-26T08:46:30.621Z,6148.00
2022-07-26T08:47:37.980Z,6820.00
2022-07-26T08:48:35.768Z,6896.00
2022-07-26T08:49:32.493Z,6076.00
2022-07-26T08:50:31.675Z,4616.00
2022-07-26T08:51:31.922Z,3000.00
2022-07-26T08:52:32.183Z,2040.00
2022-07-26T08:53:32.433Z,2068.00
2022-07-26T08:54:32.696Z,2876.00
2022-07-26T08:55:50.581Z,4144.00
2022-07-26T08:56:34.319Z,5348.00
2022-07-26T08:57:33.624Z,5512.00
2022-07-26T08:58:33.919Z,5448.00
2022-07-26T08:59:34.156Z,5936.00
2022-07-26T09:00:34.494Z,5872.00
2022-07-26T09:01:34.718Z,4988.00
2022-07-26T09:02:34.907Z,5148.00
2022-07-26T09:03:35.189Z,5816.00
2022-07-26T09:04:38.815Z,6988.00
2022-07-26T09:05:36.785Z,8684.00
2022-07-26T09:06:36.110Z,8872.00
2022-07-26T09:07:36.358Z,8648.00
2022-07-26T09:08:36.628Z,8268.00
2022-07-26T09:09:36.886Z,8576.00
2022-07-26T09:10:39.167Z,7976.00
2022-07-26T09:11:37.532Z,8012.00
2022-07-26T09:12:37.822Z,7596.00
2022-07-26T09:13:38.175Z,6388.00
2022-07-26T09:14:38.345Z,5368.00
2022-07-26T09:15:38.654Z,6096.00
2022-07-26T09:16:40.008Z,6660.00
2022-07-26T09:17:39.087Z,6852.00
2022-07-26T09:18:39.474Z,6612.00
2022-07-26T09:19:39.707Z,6596.00
2022-07-26T09:20:39.988Z,6376.00
2022-07-26T09:21:40.305Z,5744.00
2022-07-26T09:22:40.577Z,5192.00
2022-07-26T09:23:40.879Z,4768.00
2022-07-26T09:24:41.175Z,4684.00
2022-07-26T09:25:41.453Z,4876.00
2022-07-26T09:26:41.765Z,5272.00
2022-07-26T09:27:42.065Z,5812.00
2022-07-26T09:28:45.036Z,6096.00
2022-07-26T09:29:42.693Z,6880.00
2022-07-26T09:30:42.983Z,7740.00
2022-07-26T09:31:43.316Z,8068.00
2022-07-26T09:32:43.561Z,7180.00
2022-07-26T09:33:43.847Z,6576.00
2022-07-26T09:34:52.021Z,5708.00
2022-07-26T09:35:51.290Z,5636.00
2022-07-26T09:36:46.145Z,4712.00
2022-07-26T09:37:44.995Z,4988.00
2022-07-26T09:38:45.281Z,5516.00
2022-07-26T09:39:45.565Z,6204.00
2022-07-26T09:40:49.603Z,7232.00
2022-07-26T09:41:49.393Z,6996.00
2022-07-26T09:42:47.422Z,6576.00
2022-07-26T09:43:51.568Z,5616.00
2022-07-26T09:44:48.284Z,4932.00
2022-07-26T09:45:47.150Z,5144.00
2022-07-26T09:46:47.488Z,6148.00
2022-07-26T09:47:47.790Z,6960.00
2022-07-26T09:49:49.369Z,6240.00
2022-07-26T09:50:49.372Z,5340.00
2022-07-26T09:51:48.873Z,5652.00
2022-07-26T09:52:49.166Z,5880.00
2022-07-26T09:53:49.457Z,5972.00
2022-07-26T09:54:50.517Z,5744.00
2022-07-26T09:55:49.984Z,5644.00
2022-07-26T09:56:50.317Z,6132.00
2022-07-26T09:57:50.696Z,6540.00
2022-07-26T09:58:50.947Z,6044.00
2022-07-26T09:59:51.229Z,6040.00
2022-07-26T10:00:51.497Z,5696.00
2022-07-26T10:01:51.968Z,5272.00
2022-07-26T10:02:52.152Z,4984.00
2022-07-26T10:03:52.480Z,4536.00
2022-07-26T10:04:52.787Z,4240.00
2022-07-26T10:05:53.061Z,4252.00
2022-07-26T10:06:53.399Z,4112.00
2022-07-26T10:07:53.680Z,3960.00
2022-07-26T10:08:53.981Z,3604.00
2022-07-26T10:09:54.264Z,3400.00
2022-07-26T10:10:54.542Z,3392.00
2022-07-26T10:11:54.857Z,4240.00
2022-07-26T10:12:55.142Z,5328.00
2022-07-26T10:13:55.372Z,6212.00
2022-07-26T10:14:55.708Z,5268.00
2022-07-26T10:15:56.043Z,4640.00
2022-07-26T10:16:56.315Z,4552.00
2022-07-26T10:17:56.586Z,4392.00
2022-07-26T10:18:56.880Z,4144.00
2022-07-26T10:19:57.137Z,4208.00
2022-07-26T10:20:57.439Z,5156.00
2022-07-26T10:21:57.768Z,5952.00
2022-07-26T10:22:58.142Z,5952.00
2022-07-26T10:23:58.328Z,6144.00
2022-07-26T10:24:58.749Z,6528.00
2022-07-26T10:26:00.453Z,7108.00
2022-07-26T10:26:59.233Z,6516.00
2022-07-26T10:27:59.404Z,5388.00
2022-07-26T10:28:59.679Z,3720.00
2022-07-26T10:29:59.974Z,2624.00
2022-07-26T10:31:01.017Z,1888.00
2022-07-26T10:32:01.301Z,1428.00
2022-07-26T10:33:01.537Z,1128.00
2022-07-26T10:34:01.043Z,1128.00
2022-07-26T10:35:01.333Z,1372.00
2022-07-26T10:36:01.618Z,1612.00
2022-07-26T10:37:01.925Z,2068.00
2022-07-26T10:38:02.246Z,2392.00
2022-07-26T10:39:02.533Z,3092.00
2022-07-26T10:40:02.798Z,3576.00
2022-07-26T10:41:03.096Z,4216.00
2022-07-26T10:42:03.407Z,5012.00
2022-07-26T10:43:22.993Z,5796.00
2022-07-26T10:44:05.029Z,6284.00
2022-07-26T10:45:04.238Z,6704.00
2022-07-26T10:46:04.561Z,6980.00
2022-07-26T10:47:04.820Z,7540.00
2022-07-26T10:48:05.150Z,7368.00
2022-07-26T10:49:05.546Z,7564.00
2022-07-26T10:50:05.753Z,7652.00
2022-07-26T10:51:06.623Z,7696.00
2022-07-26T10:52:06.355Z,8048.00
2022-07-26T10:53:06.660Z,8368.00
2022-07-26T10:54:07.050Z,8596.00
2022-07-26T10:55:07.158Z,8696.00
2022-07-26T10:56:07.437Z,8576.00
2022-07-26T10:57:08.694Z,8844.00
2022-07-26T10:58:08.045Z,8936.00
2022-07-26T10:59:08.332Z,8972.00
2022-07-26T11:00:08.616Z,8920.00
2022-07-26T11:01:08.974Z,8696.00
2022-07-26T11:02:09.747Z,8316.00
2022-07-26T11:03:09.552Z,7720.00
2022-07-26T11:04:10.945Z,7088.00
2022-07-26T11:05:09.970Z,6272.00
2022-07-26T11:06:10.251Z,5652.00
2022-07-26T11:07:10.642Z,5228.00
2022-07-26T11:08:11.014Z,4680.00
2022-07-26T11:09:11.022Z,4204.00
2022-07-26T11:10:11.293Z,4300.00
2022-07-26T11:11:11.564Z,4200.00
2022-07-26T11:12:11.977Z,4396.00
2022-07-26T11:13:12.091Z,4004.00
2022-07-26T11:14:12.954Z,4016.00
2022-07-26T11:15:12.669Z,3960.00
2022-07-26T11:16:13.163Z,4076.00
2022-07-26T11:17:13.325Z,4376.00
2022-07-26T11:18:13.617Z,4888.00
2022-07-26T11:19:13.956Z,5580.00
2022-07-26T11:20:14.236Z,6240.00
2022-07-26T11:21:14.537Z,5760.00
2022-07-26T11:22:14.886Z,4864.00
2022-07-26T11:23:15.168Z,4044.00
2022-07-26T11:24:15.667Z,3784.00
2022-07-26T11:25:15.759Z,3824.00
2022-07-26T11:26:16.043Z,3600.00
2022-07-26T11:27:16.330Z,3516.00
2022-07-26T11:28:16.611Z,3756.00
2022-07-26T11:29:17.811Z,3784.00
2022-07-26T11:30:18.249Z,3824.00
2022-07-26T11:31:17.638Z,3996.00
2022-07-26T11:32:18.542Z,4436.00
2022-07-26T11:33:18.166Z,4820.00
2022-07-26T11:34:18.497Z,5408.00
2022-07-26T11:35:18.768Z,5944.00
2022-07-26T11:36:19.050Z,6096.00
2022-07-26T11:37:19.389Z,6260.00
2022-07-26T11:38:19.654Z,6536.00
2022-07-26T11:39:19.926Z,6556.00
2022-07-26T11:40:20.226Z,6868.00
2022-07-26T11:41:20.486Z,7028.00
2022-07-26T11:42:21.918Z,7088.00
2022-07-26T11:43:21.159Z,6772.00
2022-07-26T11:44:22.412Z,6352.00
2022-07-26T11:45:21.773Z,5832.00
2022-07-26T11:46:22.106Z,5120.00
2022-07-26T11:47:25.754Z,4484.00
2022-07-26T11:48:22.558Z,3908.00
2022-07-26T11:49:25.133Z,3372.00
2022-07-26T11:50:24.179Z,2952.00
2022-07-26T11:51:23.324Z,2692.00
2022-07-26T11:52:25.530Z,2668.00
2022-07-26T11:53:23.892Z,2804.00
2022-07-26T11:54:24.163Z,2812.00
2022-07-26T11:55:24.438Z,2496.00
2022-07-26T11:56:25.686Z,1996.00
2022-07-26T11:57:25.026Z,1300.00
2022-07-26T11:58:25.287Z,932.00
2022-07-26T11:59:25.611Z,848.00
2022-07-26T12:00:25.911Z,908.00
2022-07-26T12:01:26.151Z,936.00
2022-07-26T12:02:26.454Z,1144.00
2022-07-26T12:03:26.740Z,1532.00
2022-07-26T12:04:27.146Z,1888.00
2022-07-26T12:05:27.467Z,2052.00
2022-07-26T12:06:27.499Z,2032.00
2022-07-26T12:07:27.808Z,1920.00
2022-07-26T12:08:28.100Z,1712.00
2022-07-26T12:09:28.379Z,1556.00
2022-07-26T12:10:28.722Z,1472.00
2022-07-26T12:11:29.038Z,1380.00
2022-07-26T12:12:29.342Z,1256.00
2022-07-26T12:13:29.632Z,1160.00
2022-07-26T12:14:30.873Z,1212.00
2022-07-26T12:15:30.333Z,1212.00
2022-07-26T12:16:30.493Z,1208.00
2022-07-26T12:17:35.179Z,1180.00
2022-07-26T12:18:31.083Z,1136.00
2022-07-26T12:19:31.365Z,1048.00
2022-07-26T12:20:31.625Z,996.00
2022-07-26T12:21:31.909Z,932.00
2022-07-26T12:22:32.197Z,836.00
2022-07-26T12:23:32.446Z,740.00
2022-07-26T12:24:32.746Z,732.00
2022-07-26T12:25:32.997Z,768.00
2022-07-26T12:26:33.295Z,828.00
2022-07-26T12:27:33.598Z,904.00
2022-07-26T12:28:33.858Z,1012.00